createdAt,value
2016-05-05T00:00:57.089Z,1023.73
2016-05-05T00:04:09.659Z,1023.71
2016-05-05T00:07:22.167Z,1023.63
2016-05-05T00:10:34.722Z,1023.71
2016-05-05T00:13:51.293Z,1023.67
2016-05-05T00:16:59.037Z,1023.55
2016-05-05T00:20:02.780Z,1023.51
2016-05-05T00:23:15.351Z,1023.61
2016-05-05T00:26:28.078Z,1023.51
2016-05-05T00:29:40.726Z,1023.49
2016-05-05T00:33:00.299Z,1023.59
2016-05-05T00:36:00.995Z,1023.53
2016-05-05T00:39:13.753Z,1023.57
2016-05-05T00:42:25.652Z,1023.53
2016-05-05T00:45:38.222Z,1023.49
2016-05-05T00:48:54.465Z,1023.51
2016-05-05T00:51:58.255Z,1023.53
2016-05-05T00:55:10.906Z,1023.45
2016-05-05T00:58:23.477Z,1023.55
2016-05-05T01:01:36.281Z,1023.49
2016-05-05T01:04:53.086Z,1023.55
2016-05-05T01:08:00.784Z,1023.37
2016-05-05T01:11:04.464Z,1023.47
2016-05-05T01:14:16.878Z,1023.47
2016-05-05T01:17:29.433Z,1023.61
2016-05-05T01:20:42.238Z,1023.57
2016-05-05T01:23:58.871Z,1023.45
2016-05-05T01:27:02.851Z,1023.53
2016-05-05T01:30:15.421Z,1023.47
2016-05-05T01:33:28.195Z,1023.47
2016-05-05T01:36:38.329Z,1023.57
2016-05-05T01:39:54.742Z,1023.53
2016-05-05T01:42:58.720Z,1023.47
2016-05-05T01:46:11.355Z,1023.41
2016-05-05T01:49:22.238Z,1023.33
2016-05-05T01:52:35.048Z,1023.41
2016-05-05T01:55:51.856Z,1023.47
2016-05-05T01:58:59.811Z,1023.49
2016-05-05T02:02:03.519Z,1023.49
2016-05-05T02:05:16.061Z,1023.59
2016-05-05T02:08:28.767Z,1023.51
2016-05-05T02:11:41.608Z,1023.59
2016-05-05T02:14:55.838Z,1023.55
2016-05-05T02:17:59.599Z,1023.51
2016-05-05T02:21:12.049Z,1023.45
2016-05-05T02:24:24.668Z,1023.45
2016-05-05T02:27:37.098Z,1023.41
2016-05-05T02:30:53.919Z,1023.41
2016-05-05T02:33:57.864Z,1023.39
2016-05-05T02:37:10.781Z,1023.53
2016-05-05T02:40:23.384Z,1023.47
2016-05-05T02:43:36.125Z,1023.47
2016-05-05T02:46:52.883Z,1023.51
2016-05-05T02:50:00.891Z,1023.53
2016-05-05T02:53:04.918Z,1023.59
2016-05-05T02:56:14.974Z,1023.49
2016-05-05T02:59:27.763Z,1023.39
2016-05-05T03:02:40.552Z,1023.39
2016-05-05T03:05:57.107Z,1023.53
2016-05-05T03:09:01.209Z,1023.55
2016-05-05T03:12:13.906Z,1023.49
2016-05-05T03:15:30.571Z,1023.55
2016-05-05T03:18:39.236Z,1023.49
2016-05-05T03:21:55.946Z,1023.49
2016-05-05T03:25:00.189Z,1023.57
2016-05-05T03:28:10.293Z,1023.45
2016-05-05T03:31:23.176Z,1023.51
2016-05-05T03:34:35.920Z,1023.55
2016-05-05T03:37:52.709Z,1023.55
2016-05-05T03:41:00.420Z,1023.59
2016-05-05T03:44:04.365Z,1023.65
2016-05-05T03:47:17.189Z,1023.61
2016-05-05T03:50:29.899Z,1023.57
2016-05-05T03:53:42.188Z,1023.49
2016-05-05T03:56:58.697Z,1023.55
2016-05-05T04:00:02.737Z,1023.59
2016-05-05T04:03:15.403Z,1023.47
2016-05-05T04:06:27.865Z,1023.59
2016-05-05T04:09:40.560Z,1023.53
2016-05-05T04:12:57.334Z,1023.47
2016-05-05T04:16:01.405Z,1023.47
2016-05-05T04:19:12.572Z,1023.53
2016-05-05T04:22:25.236Z,1023.43
2016-05-05T04:25:37.619Z,1023.59
2016-05-05T04:28:54.190Z,1023.55
2016-05-05T04:31:58.026Z,1023.55
2016-05-05T04:35:10.833Z,1023.55
2016-05-05T04:38:21.092Z,1023.59
2016-05-05T04:41:33.928Z,1023.67
2016-05-05T04:44:47.217Z,1023.65
2016-05-05T04:47:59.772Z,1023.61
2016-05-05T04:51:10.486Z,1023.65
2016-05-05T04:54:23.353Z,1023.59
2016-05-05T04:57:36.049Z,1023.59
2016-05-05T05:00:52.729Z,1023.63
2016-05-05T05:04:00.690Z,1023.65
2016-05-05T05:07:04.636Z,1023.63
2016-05-05T05:10:17.287Z,1023.63
2016-05-05T05:13:30.076Z,1023.61
2016-05-05T05:16:42.694Z,1023.63
2016-05-05T05:19:59.467Z,1023.67
2016-05-05T05:23:03.756Z,1023.35
2016-05-05T05:26:15.346Z,1023.41
2016-05-05T05:29:29.057Z,1023.32
2016-05-05T05:32:42.799Z,1023.28
2016-05-05T05:36:00.276Z,1023.22
2016-05-05T05:39:05.018Z,1023.16
2016-05-05T05:42:18.701Z,1023.24
2016-05-05T05:45:29.897Z,1023.12
2016-05-05T05:48:43.623Z,1023.06
2016-05-05T05:52:01.084Z,1023.14
2016-05-05T05:55:06.217Z,1023.06
2016-05-05T05:58:20.260Z,1023.04
2016-05-05T06:01:32.986Z,1023.14
2016-05-05T06:04:47.916Z,1023
2016-05-05T06:08:01.956Z,1023.14
2016-05-05T06:11:16.060Z,1023.04
2016-05-05T06:14:29.740Z,1023
2016-05-05T06:17:44.014Z,1023
2016-05-05T06:20:58.131Z,1022.92
2016-05-05T06:24:12.386Z,1022.78
2016-05-05T06:27:26.801Z,1022.76
2016-05-05T06:30:41.184Z,1022.8
2016-05-05T06:33:59.504Z,1022.66
2016-05-05T06:37:05.293Z,1022.78
2016-05-05T06:40:20.007Z,1022.64
2016-05-05T06:43:34.906Z,1022.68
2016-05-05T06:46:53.898Z,1022.64
2016-05-05T06:50:00.469Z,1022.52
2016-05-05T06:53:15.339Z,1022.54
2016-05-05T06:56:30.191Z,1022.5
2016-05-05T06:59:45.105Z,1022.5
2016-05-05T07:03:00.270Z,1022.46
2016-05-05T07:06:15.452Z,1022.36
2016-05-05T07:09:30.273Z,1022.42
2016-05-05T07:12:45.437Z,1022.28
2016-05-05T07:16:00.555Z,1022.18
2016-05-05T07:19:15.644Z,1022.2
2016-05-05T07:22:30.527Z,1022.24
2016-05-05T07:25:45.300Z,1022.28
2016-05-05T07:29:00.433Z,1022.18
2016-05-05T07:32:15.554Z,1022.22
2016-05-05T07:35:30.843Z,1022.02
2016-05-05T07:38:46.038Z,1022.12
2016-05-05T07:42:00.765Z,1022.02
2016-05-05T07:45:15.995Z,1022.06
2016-05-05T07:48:31.159Z,1022
2016-05-05T07:51:46.308Z,1021.92
2016-05-05T07:55:01.363Z,1021.87
2016-05-05T07:58:16.639Z,1021.79
2016-05-05T08:01:31.960Z,1021.77
2016-05-05T08:04:46.983Z,1021.73
2016-05-05T08:08:02.304Z,1021.57
2016-05-05T08:11:17.659Z,1021.51
2016-05-05T08:14:33.307Z,1021.45
2016-05-05T08:17:52.736Z,1021.43
2016-05-05T08:20:59.480Z,1021.33
2016-05-05T08:24:15.003Z,1021.17
2016-05-05T08:27:30.530Z,1021.29
2016-05-05T08:30:45.069Z,1021.09
2016-05-05T08:34:01.796Z,1021.03
2016-05-05T08:37:17.338Z,1020.97
2016-05-05T08:40:32.814Z,1020.87
2016-05-05T08:43:52.479Z,1020.89
2016-05-05T08:46:59.534Z,1020.77
2016-05-05T08:50:13.136Z,1020.77
2016-05-05T08:53:28.787Z,1020.67
2016-05-05T08:56:44.748Z,1020.63
2016-05-05T09:00:00.474Z,1020.63
2016-05-05T09:03:16.310Z,1020.67
2016-05-05T09:06:31.962Z,1020.73
2016-05-05T09:09:47.408Z,1020.69
2016-05-05T09:13:02.713Z,1020.57
2016-05-05T09:16:18.487Z,1020.57
2016-05-05T09:19:34.107Z,1020.45
2016-05-05T09:22:53.756Z,1020.49
2016-05-05T09:26:00.700Z,1020.91
2016-05-05T09:29:15.913Z,1020.83
2016-05-05T09:32:31.057Z,1020.65
2016-05-05T09:35:45.971Z,1020.73
2016-05-05T09:39:00.728Z,1021.01
2016-05-05T09:42:15.866Z,1020.89
2016-05-05T09:45:30.850Z,1021.01
2016-05-05T09:48:45.390Z,1021.17
2016-05-05T09:51:59.742Z,1021.94
2016-05-05T09:55:13.797Z,1022.06
2016-05-05T09:58:27.683Z,1022.02
2016-05-05T10:01:42.269Z,1022.18
2016-05-05T10:05:01.167Z,1022.18
2016-05-05T10:08:07.441Z,1022.28
2016-05-05T10:11:22.358Z,1022.28
2016-05-05T10:14:37.178Z,1022.26
2016-05-05T10:17:55.795Z,1022.28
2016-05-05T10:21:02.116Z,1022.24
2016-05-05T10:24:16.797Z,1022.26
2016-05-05T10:27:31.120Z,1022.2
2016-05-05T10:30:45.690Z,1022.24
2016-05-05T10:34:00.011Z,1022.24
2016-05-05T10:37:14.457Z,1022.24
2016-05-05T10:40:29.061Z,1022.12
2016-05-05T10:43:43.757Z,1022.26
2016-05-05T10:47:02.468Z,1022.14
2016-05-05T10:50:08.539Z,1022.24
2016-05-05T10:53:23.000Z,1022.16
2016-05-05T10:56:37.698Z,1022.1
2016-05-05T10:59:56.297Z,1022.06
2016-05-05T11:03:02.483Z,1022.04
2016-05-05T11:06:17.218Z,1021.96
2016-05-05T11:09:32.103Z,1022.02
2016-05-05T11:12:46.533Z,1021.92
2016-05-05T11:16:01.485Z,1021.91
2016-05-05T11:19:15.936Z,1021.94
2016-05-05T11:22:30.746Z,1021.92
2016-05-05T11:25:45.393Z,1021.83
2016-05-05T11:29:00.105Z,1021.92
2016-05-05T11:32:13.817Z,1021.83
2016-05-05T11:35:28.468Z,1021.69
2016-05-05T11:38:42.882Z,1021.71
2016-05-05T11:42:01.547Z,1021.67
2016-05-05T11:45:07.648Z,1021.65
2016-05-05T11:48:22.266Z,1021.57
2016-05-05T11:51:36.870Z,1021.67
2016-05-05T11:54:55.051Z,1021.53
2016-05-05T11:58:00.965Z,1021.51
2016-05-05T12:01:15.456Z,1021.69
2016-05-05T12:04:30.093Z,1021.51
2016-05-05T12:07:44.647Z,1021.53
2016-05-05T12:10:59.188Z,1021.37
2016-05-05T12:14:13.554Z,1021.39
2016-05-05T12:17:27.785Z,1021.39
2016-05-05T12:20:41.948Z,1021.33
2016-05-05T12:23:59.628Z,1021.25
2016-05-05T12:27:05.137Z,1021.21
2016-05-05T12:30:18.988Z,1021.25
2016-05-05T12:33:33.202Z,1021.21
2016-05-05T12:36:47.288Z,1021.19
2016-05-05T12:40:01.327Z,1021.19
2016-05-05T12:43:15.382Z,1021.09
2016-05-05T12:46:29.393Z,1020.93
2016-05-05T12:49:43.479Z,1020.99
2016-05-05T12:53:01.518Z,1020.93
2016-05-05T12:56:06.762Z,1020.87
2016-05-05T12:59:20.737Z,1021.03
2016-05-05T13:02:34.530Z,1020.87
2016-05-05T13:05:48.350Z,1020.85
2016-05-05T13:09:02.047Z,1020.97
2016-05-05T13:12:15.805Z,1020.75
2016-05-05T13:15:29.359Z,1020.91
2016-05-05T13:18:42.901Z,1020.89
2016-05-05T13:22:00.535Z,1020.65
2016-05-05T13:25:05.527Z,1020.69
2016-05-05T13:28:19.004Z,1020.61
2016-05-05T13:31:32.436Z,1020.49
2016-05-05T13:34:46.023Z,1020.57
2016-05-05T13:37:59.593Z,1020.49
2016-05-05T13:41:13.070Z,1020.51
2016-05-05T13:44:26.203Z,1020.51
2016-05-05T13:47:39.120Z,1020.43
2016-05-05T13:50:56.003Z,1020.47
2016-05-05T13:53:59.668Z,1020.47
2016-05-05T13:57:14.238Z,1020.29
2016-05-05T14:00:27.418Z,1020.31
2016-05-05T14:03:40.506Z,1020.31
2016-05-05T14:06:56.749Z,1020.17
2016-05-05T14:10:01.570Z,1020.19
2016-05-05T14:13:14.250Z,1020.11
2016-05-05T14:16:27.477Z,1020.08
2016-05-05T14:19:40.315Z,1020.11
2016-05-05T14:22:57.370Z,1020.1
2016-05-05T14:26:01.847Z,1020.06
2016-05-05T14:29:15.105Z,1020
2016-05-05T14:32:28.317Z,1019.88
2016-05-05T14:35:41.639Z,1019.92
2016-05-05T14:38:58.570Z,1019.94
2016-05-05T14:42:03.062Z,1019.9
2016-05-05T14:45:16.445Z,1019.9
2016-05-05T14:48:29.937Z,1019.74
2016-05-05T14:51:43.620Z,1019.74
2016-05-05T14:55:01.316Z,1019.72
2016-05-05T14:58:06.214Z,1019.72
2016-05-05T15:01:19.815Z,1019.64
2016-05-05T15:04:33.465Z,1019.68
2016-05-05T15:07:47.209Z,1019.66
2016-05-05T15:11:00.687Z,1019.66
2016-05-05T15:14:14.258Z,1019.54
2016-05-05T15:17:27.671Z,1019.58
2016-05-05T15:20:41.058Z,1019.52
2016-05-05T15:23:58.691Z,1019.48
2016-05-05T15:27:03.558Z,1019.38
2016-05-05T15:30:17.051Z,1019.48
2016-05-05T15:33:30.776Z,1019.44
2016-05-05T15:36:44.460Z,1019.48
2016-05-05T15:40:01.906Z,1019.38
2016-05-05T15:43:06.945Z,1019.36
2016-05-05T15:46:20.469Z,1019.22
2016-05-05T15:49:34.008Z,1019.24
2016-05-05T15:52:47.425Z,1019.22
2016-05-05T15:56:01.104Z,1019.18
2016-05-05T15:59:14.175Z,1019.16
2016-05-05T16:02:27.652Z,1019.12
2016-05-05T16:05:41.288Z,1019.12
2016-05-05T16:08:58.796Z,1019.1
2016-05-05T16:12:03.711Z,1019.08
2016-05-05T16:15:16.937Z,1019.06
2016-05-05T16:18:30.461Z,1018.94
2016-05-05T16:21:43.691Z,1018.86
2016-05-05T16:25:01.496Z,1018.96
2016-05-05T16:28:06.534Z,1019
2016-05-05T16:31:19.543Z,1018.96
2016-05-05T16:34:33.316Z,1018.94
2016-05-05T16:37:46.968Z,1018.76
2016-05-05T16:40:59.835Z,1018.76
2016-05-05T16:44:13.312Z,1018.9
2016-05-05T16:47:26.148Z,1018.8
2016-05-05T16:50:39.893Z,1018.86
2016-05-05T16:53:57.574Z,1018.7
2016-05-05T16:57:02.565Z,1018.74
2016-05-05T17:00:13.746Z,1018.78
2016-05-05T17:03:27.503Z,1018.74
2016-05-05T17:06:41.093Z,1018.72
2016-05-05T17:09:58.773Z,1018.72
2016-05-05T17:13:03.359Z,1018.72
2016-05-05T17:16:16.711Z,1018.7
2016-05-05T17:19:30.391Z,1018.52
2016-05-05T17:22:44.058Z,1018.62
2016-05-05T17:26:01.722Z,1018.56
2016-05-05T17:29:06.496Z,1018.5
2016-05-05T17:32:19.988Z,1018.5
2016-05-05T17:35:33.637Z,1018.48
2016-05-05T17:38:47.445Z,1018.56
2016-05-05T17:42:01.484Z,1018.56
2016-05-05T17:45:06.398Z,1018.6
2016-05-05T17:48:20.140Z,1018.54
2016-05-05T17:51:33.352Z,1018.6
2016-05-05T17:54:46.925Z,1018.56
2016-05-05T17:58:00.511Z,1018.56
2016-05-05T18:01:14.144Z,1018.58
2016-05-05T18:04:27.777Z,1018.58
2016-05-05T18:07:40.926Z,1018.52
2016-05-05T18:10:58.389Z,1018.5
2016-05-05T18:14:03.319Z,1018.58
2016-05-05T18:17:16.578Z,1018.44
2016-05-05T18:20:30.242Z,1018.44
2016-05-05T18:23:43.816Z,1018.48
2016-05-05T18:27:01.339Z,1018.52
2016-05-05T18:30:06.175Z,1018.54
2016-05-05T18:33:19.699Z,1018.48
2016-05-05T18:36:33.302Z,1018.44
2016-05-05T18:39:47.124Z,1018.44
2016-05-05T18:43:00.570Z,1018.54
2016-05-05T18:46:14.359Z,1018.58
2016-05-05T18:49:27.258Z,1018.38
2016-05-05T18:52:40.719Z,1018.48
2016-05-05T18:55:58.338Z,1018.5
2016-05-05T18:59:02.972Z,1018.48
2016-05-05T19:02:15.824Z,1018.58
2016-05-05T19:05:29.254Z,1018.58
2016-05-05T19:08:42.731Z,1018.58
2016-05-05T19:12:00.257Z,1018.62
2016-05-05T19:15:05.078Z,1018.52
2016-05-05T19:18:18.695Z,1018.6
2016-05-05T19:21:32.345Z,1018.56
2016-05-05T19:24:45.695Z,1018.54
2016-05-05T19:28:03.222Z,1018.52
2016-05-05T19:31:08.042Z,1018.56
2016-05-05T19:34:24.441Z,1018.58
2016-05-05T19:37:35.106Z,1018.64
2016-05-05T19:40:48.816Z,1018.64
2016-05-05T19:44:01.984Z,1018.56
2016-05-05T19:47:15.382Z,1018.58
2016-05-05T19:50:28.875Z,1018.6
2016-05-05T19:53:42.523Z,1018.56
2016-05-05T19:56:59.847Z,1018.46
2016-05-05T20:00:04.730Z,1018.64
2016-05-05T20:03:18.051Z,1018.5
2016-05-05T20:06:31.488Z,1018.6
2016-05-05T20:09:45.399Z,1018.54
2016-05-05T20:13:03.017Z,1018.58
2016-05-05T20:16:07.925Z,1018.74
2016-05-05T20:19:21.606Z,1018.74
2016-05-05T20:22:34.401Z,1018.64
2016-05-05T20:25:47.929Z,1018.82
2016-05-05T20:29:01.068Z,1018.69
2016-05-05T20:32:14.451Z,1018.78
2016-05-05T20:35:27.803Z,1018.76
2016-05-05T20:38:41.295Z,1018.76
2016-05-05T20:41:58.431Z,1018.74
2016-05-05T20:45:03.049Z,1018.64
2016-05-05T20:48:16.416Z,1018.74
2016-05-05T20:51:29.518Z,1018.72
2016-05-05T20:54:41.260Z,1018.7
2016-05-05T20:57:58.349Z,1018.64
2016-05-05T21:01:02.873Z,1018.74
2016-05-05T21:04:16.084Z,1018.7
2016-05-05T21:07:29.436Z,1018.69
2016-05-05T21:10:42.006Z,1018.72
2016-05-05T21:14:00.221Z,1018.74
2016-05-05T21:17:04.791Z,1018.76
2016-05-05T21:20:18.065Z,1018.72
2016-05-05T21:23:31.182Z,1018.58
2016-05-05T21:26:42.971Z,1018.6
2016-05-05T21:30:00.201Z,1018.69
2016-05-05T21:33:04.678Z,1018.54
2016-05-05T21:36:17.889Z,1018.6
2016-05-05T21:39:31.272Z,1018.54
2016-05-05T21:42:41.656Z,1018.62
2016-05-05T21:46:00.116Z,1018.56
2016-05-05T21:49:04.721Z,1018.62
2016-05-05T21:52:18.041Z,1018.5
2016-05-05T21:55:31.331Z,1018.69
2016-05-05T21:58:44.574Z,1018.5
2016-05-05T22:02:01.801Z,1018.64
2016-05-05T22:05:06.311Z,1018.58
2016-05-05T22:08:19.554Z,1018.58
2016-05-05T22:11:32.515Z,1018.6
2016-05-05T22:14:45.397Z,1018.58
2016-05-05T22:18:02.624Z,1018.52
2016-05-05T22:21:07.182Z,1018.6
2016-05-05T22:24:20.485Z,1018.52
2016-05-05T22:27:33.321Z,1018.5
2016-05-05T22:30:46.564Z,1018.52
2016-05-05T22:34:03.775Z,1018.5
2016-05-05T22:37:06.986Z,1018.54
2016-05-05T22:40:21.340Z,1018.46
2016-05-05T22:43:34.614Z,1018.52
2016-05-05T22:46:47.762Z,1018.4
2016-05-05T22:50:01.100Z,1018.44
2016-05-05T22:53:13.814Z,1018.56
2016-05-05T22:56:26.931Z,1018.48
2016-05-05T22:59:39.986Z,1018.46
2016-05-05T23:02:56.963Z,1018.54
2016-05-05T23:06:01.345Z,1018.58
2016-05-05T23:09:14.450Z,1018.54
2016-05-05T23:12:25.802Z,1018.46
2016-05-05T23:15:38.935Z,1018.52
2016-05-05T23:18:56.131Z,1018.6
2016-05-05T23:22:00.592Z,1018.52
2016-05-05T23:25:13.615Z,1018.56
2016-05-05T23:28:26.455Z,1018.5
2016-05-05T23:31:39.275Z,1018.56
2016-05-05T23:34:56.439Z,1018.54
2016-05-05T23:38:00.900Z,1018.46
2016-05-05T23:41:13.971Z,1018.48
2016-05-05T23:44:31.436Z,1018.46
2016-05-05T23:47:40.427Z,1018.46
2016-05-05T23:50:56.968Z,1018.36
2016-05-05T23:54:01.365Z,1018.44
2016-05-05T23:57:14.420Z,1018.4
